sensor_id;sensor_type;location;lat;lon;timestamp;temperature;humidity
12386;DHT22;6257;57.634;18.310;2023-07-29T00:01:40;15.60;99.90
12386;DHT22;6257;57.634;18.310;2023-07-29T00:04:07;15.60;99.90
12386;DHT22;6257;57.634;18.310;2023-07-29T00:06:35;15.70;99.90
12386;DHT22;6257;57.634;18.310;2023-07-29T00:09:03;15.70;99.90
12386;DHT22;6257;57.634;18.310;2023-07-29T00:11:30;15.70;99.90
12386;DHT22;6257;57.634;18.310;2023-07-29T00:13:59;15.80;99.90
12386;DHT22;6257;57.634;18.310;2023-07-29T00:16:26;15.80;99.90
12386;DHT22;6257;57.634;18.310;2023-07-29T00:18:53;15.80;99.90
12386;DHT22;6257;57.634;18.310;2023-07-29T00:21:20;15.80;99.90
12386;DHT22;6257;57.634;18.310;2023-07-29T00:23:47;15.70;99.90
12386;DHT22;6257;57.634;18.310;2023-07-29T00:26:16;15.70;99.90
12386;DHT22;6257;57.634;18.310;2023-07-29T00:28:43;15.70;99.90
12386;DHT22;6257;57.634;18.310;2023-07-29T00:31:10;15.70;99.90
12386;DHT22;6257;57.634;18.310;2023-07-29T00:33:37;15.80;99.90
12386;DHT22;6257;57.634;18.310;2023-07-29T00:36:04;15.80;99.90
12386;DHT22;6257;57.634;18.310;2023-07-29T00:38:31;15.90;99.90
12386;DHT22;6257;57.634;18.310;2023-07-29T00:41:00;15.90;99.90
12386;DHT22;6257;57.634;18.310;2023-07-29T00:43:30;15.90;99.90
12386;DHT22;6257;57.634;18.310;2023-07-29T00:45:57;15.90;99.90
12386;DHT22;6257;57.634;18.310;2023-07-29T00:48:25;15.90;99.90
12386;DHT22;6257;57.634;18.310;2023-07-29T00:50:52;16.10;99.90
12386;DHT22;6257;57.634;18.310;2023-07-29T00:55:47;16.00;99.90
12386;DHT22;6257;57.634;18.310;2023-07-29T00:58:14;15.90;99.90
12386;DHT22;6257;57.634;18.310;2023-07-29T01:03:10;15.90;99.90
12386;DHT22;6257;57.634;18.310;2023-07-29T01:05:44;15.90;99.90
12386;DHT22;6257;57.634;18.310;2023-07-29T01:08:21;15.90;99.90
12386;DHT22;6257;57.634;18.310;2023-07-29T01:10:55;15.90;99.90
12386;DHT22;6257;57.634;18.310;2023-07-29T01:13:29;15.90;99.90
12386;DHT22;6257;57.634;18.310;2023-07-29T01:16:02;16.00;99.90
12386;DHT22;6257;57.634;18.310;2023-07-29T01:18:32;16.00;99.90
12386;DHT22;6257;57.634;18.310;2023-07-29T01:21:04;16.00;99.90
12386;DHT22;6257;57.634;18.310;2023-07-29T01:23:34;16.00;99.90
12386;DHT22;6257;57.634;18.310;2023-07-29T01:26:01;15.90;99.90
12386;DHT22;6257;57.634;18.310;2023-07-29T01:28:29;15.90;99.90
12386;DHT22;6257;57.634;18.310;2023-07-29T01:31:01;15.90;99.90
12386;DHT22;6257;57.634;18.310;2023-07-29T01:33:35;15.90;99.90
12386;DHT22;6257;57.634;18.310;2023-07-29T01:36:10;15.90;99.90
12386;DHT22;6257;57.634;18.310;2023-07-29T01:38:41;15.90;99.90
12386;DHT22;6257;57.634;18.310;2023-07-29T01:41:09;16.00;99.90
12386;DHT22;6257;57.634;18.310;2023-07-29T01:43:37;16.10;99.90
12386;DHT22;6257;57.634;18.310;2023-07-29T01:46:09;16.00;99.90
12386;DHT22;6257;57.634;18.310;2023-07-29T01:48:37;16.00;99.90
12386;DHT22;6257;57.634;18.310;2023-07-29T01:51:05;16.00;99.90
12386;DHT22;6257;57.634;18.310;2023-07-29T01:53:32;16.00;99.90
12386;DHT22;6257;57.634;18.310;2023-07-29T01:56:02;16.00;99.90
12386;DHT22;6257;57.634;18.310;2023-07-29T01:58:29;16.00;99.90
12386;DHT22;6257;57.634;18.310;2023-07-29T02:00:56;16.00;99.90
12386;DHT22;6257;57.634;18.310;2023-07-29T02:03:23;16.00;99.90
12386;DHT22;6257;57.634;18.310;2023-07-29T02:05:50;16.00;99.90
12386;DHT22;6257;57.634;18.310;2023-07-29T02:08:17;16.00;99.90
12386;DHT22;6257;57.634;18.310;2023-07-29T02:10:44;16.00;99.90
12386;DHT22;6257;57.634;18.310;2023-07-29T02:13:13;16.00;99.90
12386;DHT22;6257;57.634;18.310;2023-07-29T02:15:40;15.90;99.90
12386;DHT22;6257;57.634;18.310;2023-07-29T02:18:07;15.80;99.90
12386;DHT22;6257;57.634;18.310;2023-07-29T02:20:34;15.80;99.90
12386;DHT22;6257;57.634;18.310;2023-07-29T02:23:01;15.90;99.90
12386;DHT22;6257;57.634;18.310;2023-07-29T02:25:28;15.90;99.90
12386;DHT22;6257;57.634;18.310;2023-07-29T02:27:55;15.80;99.90
12386;DHT22;6257;57.634;18.310;2023-07-29T02:30:23;15.80;99.90
12386;DHT22;6257;57.634;18.310;2023-07-29T02:32:50;15.80;99.90
12386;DHT22;6257;57.634;18.310;2023-07-29T02:35:17;15.80;99.90
12386;DHT22;6257;57.634;18.310;2023-07-29T02:37:44;15.70;99.90
12386;DHT22;6257;57.634;18.310;2023-07-29T02:40:12;15.70;99.90
12386;DHT22;6257;57.634;18.310;2023-07-29T02:42:39;15.70;99.90
12386;DHT22;6257;57.634;18.310;2023-07-29T02:45:07;15.70;99.90
12386;DHT22;6257;57.634;18.310;2023-07-29T02:47:38;15.70;99.90
12386;DHT22;6257;57.634;18.310;2023-07-29T02:50:05;15.70;99.90
12386;DHT22;6257;57.634;18.310;2023-07-29T02:52:32;15.80;99.90
12386;DHT22;6257;57.634;18.310;2023-07-29T02:54:59;15.80;99.90
12386;DHT22;6257;57.634;18.310;2023-07-29T02:57:26;15.90;99.90
12386;DHT22;6257;57.634;18.310;2023-07-29T02:59:53;15.90;99.90
12386;DHT22;6257;57.634;18.310;2023-07-29T03:02:20;15.90;99.90
12386;DHT22;6257;57.634;18.310;2023-07-29T03:07:16;15.90;99.90
12386;DHT22;6257;57.634;18.310;2023-07-29T03:09:43;16.00;99.90
12386;DHT22;6257;57.634;18.310;2023-07-29T03:12:10;16.00;99.90
12386;DHT22;6257;57.634;18.310;2023-07-29T03:14:37;16.00;99.90
12386;DHT22;6257;57.634;18.310;2023-07-29T03:17:05;16.00;99.90
12386;DHT22;6257;57.634;18.310;2023-07-29T03:19:32;16.00;99.90
12386;DHT22;6257;57.634;18.310;2023-07-29T03:22:01;16.00;99.90
12386;DHT22;6257;57.634;18.310;2023-07-29T03:24:28;15.90;99.90
12386;DHT22;6257;57.634;18.310;2023-07-29T03:26:55;15.90;99.90
12386;DHT22;6257;57.634;18.310;2023-07-29T03:29:22;16.00;99.90
12386;DHT22;6257;57.634;18.310;2023-07-29T03:31:49;16.00;99.90
12386;DHT22;6257;57.634;18.310;2023-07-29T03:34:16;16.00;99.90
12386;DHT22;6257;57.634;18.310;2023-07-29T03:39:14;16.10;99.90
12386;DHT22;6257;57.634;18.310;2023-07-29T03:46:37;16.20;99.90
12386;DHT22;6257;57.634;18.310;2023-07-29T03:53:58;16.20;99.90
12386;DHT22;6257;57.634;18.310;2023-07-29T03:59:02;16.30;99.90
12386;DHT22;6257;57.634;18.310;2023-07-29T04:01:29;16.30;99.90
12386;DHT22;6257;57.634;18.310;2023-07-29T04:03:57;16.40;99.90
12386;DHT22;6257;57.634;18.310;2023-07-29T04:06:24;16.40;99.90
12386;DHT22;6257;57.634;18.310;2023-07-29T04:08:51;16.40;99.90
12386;DHT22;6257;57.634;18.310;2023-07-29T04:11:18;16.40;99.90
12386;DHT22;6257;57.634;18.310;2023-07-29T04:13:47;16.50;99.90
12386;DHT22;6257;57.634;18.310;2023-07-29T04:16:14;16.60;99.90
12386;DHT22;6257;57.634;18.310;2023-07-29T04:18:42;16.60;99.90
12386;DHT22;6257;57.634;18.310;2023-07-29T04:21:09;16.70;99.90
12386;DHT22;6257;57.634;18.310;2023-07-29T04:23:36;16.80;99.90
12386;DHT22;6257;57.634;18.310;2023-07-29T04:26:04;16.90;99.90
12386;DHT22;6257;57.634;18.310;2023-07-29T04:28:31;16.90;99.90
12386;DHT22;6257;57.634;18.310;2023-07-29T04:33:29;17.10;99.90
12386;DHT22;6257;57.634;18.310;2023-07-29T04:35:56;17.10;99.90
12386;DHT22;6257;57.634;18.310;2023-07-29T04:38:30;17.00;99.90
12386;DHT22;6257;57.634;18.310;2023-07-29T04:40:58;17.00;99.90
12386;DHT22;6257;57.634;18.310;2023-07-29T04:43:27;17.00;99.90
12386;DHT22;6257;57.634;18.310;2023-07-29T04:45:54;17.00;99.90
12386;DHT22;6257;57.634;18.310;2023-07-29T04:50:50;17.00;99.90
12386;DHT22;6257;57.634;18.310;2023-07-29T04:53:17;17.00;99.90
12386;DHT22;6257;57.634;18.310;2023-07-29T04:55:45;17.00;99.90
12386;DHT22;6257;57.634;18.310;2023-07-29T04:58:12;17.00;99.90
12386;DHT22;6257;57.634;18.310;2023-07-29T05:00:39;16.90;99.90
12386;DHT22;6257;57.634;18.310;2023-07-29T05:03:06;17.00;99.90
12386;DHT22;6257;57.634;18.310;2023-07-29T05:08:02;17.00;99.90
12386;DHT22;6257;57.634;18.310;2023-07-29T05:10:29;17.00;99.90
12386;DHT22;6257;57.634;18.310;2023-07-29T05:12:56;17.00;99.90
12386;DHT22;6257;57.634;18.310;2023-07-29T05:15:23;17.00;99.90
12386;DHT22;6257;57.634;18.310;2023-07-29T05:20:17;17.00;99.90
12386;DHT22;6257;57.634;18.310;2023-07-29T05:22:47;17.00;99.90
12386;DHT22;6257;57.634;18.310;2023-07-29T05:27:42;17.00;99.90
12386;DHT22;6257;57.634;18.310;2023-07-29T05:35:05;17.10;99.90
12386;DHT22;6257;57.634;18.310;2023-07-29T05:37:32;17.10;99.90
12386;DHT22;6257;57.634;18.310;2023-07-29T05:42:28;17.00;99.90
12386;DHT22;6257;57.634;18.310;2023-07-29T05:44:55;17.00;99.90
12386;DHT22;6257;57.634;18.310;2023-07-29T05:47:22;17.00;99.90
12386;DHT22;6257;57.634;18.310;2023-07-29T05:49:49;17.10;99.90
12386;DHT22;6257;57.634;18.310;2023-07-29T05:52:16;17.10;99.90
12386;DHT22;6257;57.634;18.310;2023-07-29T05:54:43;17.20;99.90
12386;DHT22;6257;57.634;18.310;2023-07-29T05:57:12;17.10;99.90
12386;DHT22;6257;57.634;18.310;2023-07-29T05:59:39;17.20;99.90
12386;DHT22;6257;57.634;18.310;2023-07-29T06:02:06;17.20;99.90
12386;DHT22;6257;57.634;18.310;2023-07-29T06:04:34;17.20;99.90
12386;DHT22;6257;57.634;18.310;2023-07-29T06:07:01;17.20;99.90
12386;DHT22;6257;57.634;18.310;2023-07-29T06:09:28;17.20;99.90
12386;DHT22;6257;57.634;18.310;2023-07-29T06:11:55;17.20;99.90
12386;DHT22;6257;57.634;18.310;2023-07-29T06:16:51;17.30;99.90
12386;DHT22;6257;57.634;18.310;2023-07-29T06:19:19;17.30;99.90
12386;DHT22;6257;57.634;18.310;2023-07-29T06:21:46;17.30;99.90
12386;DHT22;6257;57.634;18.310;2023-07-29T06:24:13;17.30;99.90
12386;DHT22;6257;57.634;18.310;2023-07-29T06:26:40;17.30;99.90
12386;DHT22;6257;57.634;18.310;2023-07-29T06:29:07;17.30;99.90
12386;DHT22;6257;57.634;18.310;2023-07-29T06:31:36;17.30;99.90
12386;DHT22;6257;57.634;18.310;2023-07-29T06:34:03;17.40;99.90
12386;DHT22;6257;57.634;18.310;2023-07-29T06:36:30;17.40;99.90
12386;DHT22;6257;57.634;18.310;2023-07-29T06:38:57;17.40;99.90
12386;DHT22;6257;57.634;18.310;2023-07-29T06:41:24;17.40;99.90
12386;DHT22;6257;57.634;18.310;2023-07-29T06:43:51;17.50;99.90
12386;DHT22;6257;57.634;18.310;2023-07-29T06:46:18;17.50;99.90
12386;DHT22;6257;57.634;18.310;2023-07-29T06:51:14;17.60;99.90
12386;DHT22;6257;57.634;18.310;2023-07-29T06:53:41;18.60;99.90
12386;DHT22;6257;57.634;18.310;2023-07-29T06:56:08;17.70;99.90
12386;DHT22;6257;57.634;18.310;2023-07-29T06:58:35;17.70;99.90
12386;DHT22;6257;57.634;18.310;2023-07-29T07:01:02;17.70;99.90
12386;DHT22;6257;57.634;18.310;2023-07-29T07:03:29;17.80;99.90
12386;DHT22;6257;57.634;18.310;2023-07-29T07:05:59;17.90;99.90
12386;DHT22;6257;57.634;18.310;2023-07-29T07:08:26;17.90;99.90
12386;DHT22;6257;57.634;18.310;2023-07-29T07:10:53;18.00;99.90
12386;DHT22;6257;57.634;18.310;2023-07-29T07:13:20;18.20;99.90
12386;DHT22;6257;57.634;18.310;2023-07-29T07:15:47;18.20;99.90
12386;DHT22;6257;57.634;18.310;2023-07-29T07:18:14;18.20;99.90
12386;DHT22;6257;57.634;18.310;2023-07-29T07:20:41;18.40;99.90
12386;DHT22;6257;57.634;18.310;2023-07-29T07:23:09;18.40;99.90
12386;DHT22;6257;57.634;18.310;2023-07-29T07:25:39;18.50;99.90
12386;DHT22;6257;57.634;18.310;2023-07-29T07:28:05;18.60;99.90
12386;DHT22;6257;57.634;18.310;2023-07-29T07:30:32;18.60;99.90
12386;DHT22;6257;57.634;18.310;2023-07-29T07:33:00;18.70;99.90
12386;DHT22;6257;57.634;18.310;2023-07-29T07:35:27;18.80;99.90
12386;DHT22;6257;57.634;18.310;2023-07-29T07:37:54;18.80;99.90
12386;DHT22;6257;57.634;18.310;2023-07-29T07:40:22;19.00;99.90
12386;DHT22;6257;57.634;18.310;2023-07-29T07:42:49;19.10;99.90
12386;DHT22;6257;57.634;18.310;2023-07-29T07:45:16;19.30;99.90
12386;DHT22;6257;57.634;18.310;2023-07-29T07:47:44;19.50;99.90
12386;DHT22;6257;57.634;18.310;2023-07-29T07:50:11;19.30;99.90
12386;DHT22;6257;57.634;18.310;2023-07-29T07:52:39;19.50;99.90
12386;DHT22;6257;57.634;18.310;2023-07-29T07:55:07;19.50;99.90
12386;DHT22;6257;57.634;18.310;2023-07-29T08:00:04;19.60;99.90
12386;DHT22;6257;57.634;18.310;2023-07-29T08:02:31;19.50;99.90
12386;DHT22;6257;57.634;18.310;2023-07-29T08:04:58;19.50;99.90
12386;DHT22;6257;57.634;18.310;2023-07-29T08:07:26;19.60;99.90
12386;DHT22;6257;57.634;18.310;2023-07-29T08:09:53;19.70;99.90
12386;DHT22;6257;57.634;18.310;2023-07-29T08:12:20;19.90;99.90
12386;DHT22;6257;57.634;18.310;2023-07-29T08:14:48;20.10;99.90
12386;DHT22;6257;57.634;18.310;2023-07-29T08:17:15;20.50;99.90
12386;DHT22;6257;57.634;18.310;2023-07-29T08:19:42;20.80;99.90
12386;DHT22;6257;57.634;18.310;2023-07-29T08:22:09;21.20;99.90
12386;DHT22;6257;57.634;18.310;2023-07-29T08:24:36;21.50;99.90
12386;DHT22;6257;57.634;18.310;2023-07-29T08:27:04;21.40;99.90
12386;DHT22;6257;57.634;18.310;2023-07-29T08:29:31;21.40;99.90
12386;DHT22;6257;57.634;18.310;2023-07-29T08:31:59;21.90;99.90
12386;DHT22;6257;57.634;18.310;2023-07-29T08:34:26;21.90;99.90
12386;DHT22;6257;57.634;18.310;2023-07-29T08:36:53;22.60;99.90
12386;DHT22;6257;57.634;18.310;2023-07-29T08:39:20;23.30;99.90
12386;DHT22;6257;57.634;18.310;2023-07-29T08:41:54;23.70;99.90
12386;DHT22;6257;57.634;18.310;2023-07-29T08:44:26;24.00;99.90
12386;DHT22;6257;57.634;18.310;2023-07-29T08:46:56;24.30;99.90
12386;DHT22;6257;57.634;18.310;2023-07-29T08:49:26;24.60;99.90
12386;DHT22;6257;57.634;18.310;2023-07-29T08:51:54;25.20;99.90
12386;DHT22;6257;57.634;18.310;2023-07-29T08:54:24;25.40;99.90
12386;DHT22;6257;57.634;18.310;2023-07-29T08:56:51;25.70;99.90
12386;DHT22;6257;57.634;18.310;2023-07-29T08:59:19;26.10;99.90
12386;DHT22;6257;57.634;18.310;2023-07-29T09:01:47;25.90;99.90
12386;DHT22;6257;57.634;18.310;2023-07-29T09:04:15;24.90;99.90
12386;DHT22;6257;57.634;18.310;2023-07-29T09:06:45;23.70;99.90
12386;DHT22;6257;57.634;18.310;2023-07-29T09:09:12;22.50;99.90
12386;DHT22;6257;57.634;18.310;2023-07-29T09:11:39;22.00;99.90
12386;DHT22;6257;57.634;18.310;2023-07-29T09:14:06;21.40;99.90
12386;DHT22;6257;57.634;18.310;2023-07-29T09:16:33;21.00;99.90
12386;DHT22;6257;57.634;18.310;2023-07-29T09:19:01;20.90;99.90
12386;DHT22;6257;57.634;18.310;2023-07-29T09:21:29;20.90;99.90
12386;DHT22;6257;57.634;18.310;2023-07-29T09:24:02;20.90;99.90
12386;DHT22;6257;57.634;18.310;2023-07-29T09:26:30;20.80;99.90
12386;DHT22;6257;57.634;18.310;2023-07-29T09:28:59;20.70;99.90
12386;DHT22;6257;57.634;18.310;2023-07-29T09:31:27;20.70;99.90
12386;DHT22;6257;57.634;18.310;2023-07-29T09:33:56;20.70;99.90
12386;DHT22;6257;57.634;18.310;2023-07-29T09:36:24;20.70;99.90
12386;DHT22;6257;57.634;18.310;2023-07-29T09:38:55;20.70;99.90
12386;DHT22;6257;57.634;18.310;2023-07-29T09:41:25;20.60;99.90
12386;DHT22;6257;57.634;18.310;2023-07-29T09:43:56;20.70;99.90
12386;DHT22;6257;57.634;18.310;2023-07-29T09:46:25;20.90;99.90
12386;DHT22;6257;57.634;18.310;2023-07-29T09:48:53;20.50;99.90
12386;DHT22;6257;57.634;18.310;2023-07-29T09:51:22;20.30;99.90
12386;DHT22;6257;57.634;18.310;2023-07-29T09:53:50;20.20;99.90
12386;DHT22;6257;57.634;18.310;2023-07-29T09:56:18;20.10;99.90
12386;DHT22;6257;57.634;18.310;2023-07-29T09:58:52;20.20;99.90
12386;DHT22;6257;57.634;18.310;2023-07-29T10:01:20;20.30;99.90
12386;DHT22;6257;57.634;18.310;2023-07-29T10:03:47;20.30;99.90
12386;DHT22;6257;57.634;18.310;2023-07-29T10:06:15;20.30;99.90
12386;DHT22;6257;57.634;18.310;2023-07-29T10:08:43;20.20;99.90
12386;DHT22;6257;57.634;18.310;2023-07-29T10:11:11;20.30;99.90
12386;DHT22;6257;57.634;18.310;2023-07-29T10:13:38;20.50;99.90
12386;DHT22;6257;57.634;18.310;2023-07-29T10:16:07;20.50;99.90
12386;DHT22;6257;57.634;18.310;2023-07-29T10:18:35;20.70;99.90
12386;DHT22;6257;57.634;18.310;2023-07-29T10:21:02;20.90;99.90
12386;DHT22;6257;57.634;18.310;2023-07-29T10:23:34;20.80;99.90
12386;DHT22;6257;57.634;18.310;2023-07-29T10:26:06;20.80;99.90
12386;DHT22;6257;57.634;18.310;2023-07-29T10:28:39;20.90;99.90
12386;DHT22;6257;57.634;18.310;2023-07-29T10:33:36;20.50;99.90
12386;DHT22;6257;57.634;18.310;2023-07-29T10:36:04;20.50;99.90
12386;DHT22;6257;57.634;18.310;2023-07-29T10:38:32;20.50;99.90
12386;DHT22;6257;57.634;18.310;2023-07-29T10:40:59;20.50;99.90
12386;DHT22;6257;57.634;18.310;2023-07-29T10:43:27;20.40;99.90
12386;DHT22;6257;57.634;18.310;2023-07-29T10:45:58;20.50;99.90
12386;DHT22;6257;57.634;18.310;2023-07-29T10:48:44;20.50;99.90
12386;DHT22;6257;57.634;18.310;2023-07-29T10:51:24;20.60;99.90
12386;DHT22;6257;57.634;18.310;2023-07-29T10:53:53;20.60;99.90
12386;DHT22;6257;57.634;18.310;2023-07-29T10:56:31;20.80;99.90
12386;DHT22;6257;57.634;18.310;2023-07-29T10:59:02;20.70;99.90
12386;DHT22;6257;57.634;18.310;2023-07-29T11:01:52;20.70;99.90
12386;DHT22;6257;57.634;18.310;2023-07-29T11:04:25;20.90;99.90
12386;DHT22;6257;57.634;18.310;2023-07-29T11:07:23;20.90;99.90
12386;DHT22;6257;57.634;18.310;2023-07-29T11:09:54;20.80;99.90
12386;DHT22;6257;57.634;18.310;2023-07-29T11:12:42;20.80;99.90
12386;DHT22;6257;57.634;18.310;2023-07-29T11:15:16;20.80;99.90
12386;DHT22;6257;57.634;18.310;2023-07-29T11:17:44;20.90;99.90
12386;DHT22;6257;57.634;18.310;2023-07-29T11:20:14;20.80;99.90
12386;DHT22;6257;57.634;18.310;2023-07-29T11:22:41;20.60;99.90
12386;DHT22;6257;57.634;18.310;2023-07-29T11:25:10;20.60;99.90
12386;DHT22;6257;57.634;18.310;2023-07-29T11:27:38;20.70;99.90
12386;DHT22;6257;57.634;18.310;2023-07-29T11:30:06;20.60;99.90
12386;DHT22;6257;57.634;18.310;2023-07-29T11:32:34;20.70;99.90
12386;DHT22;6257;57.634;18.310;2023-07-29T11:35:02;20.80;99.90
12386;DHT22;6257;57.634;18.310;2023-07-29T11:37:33;20.90;99.90
12386;DHT22;6257;57.634;18.310;2023-07-29T11:40:00;21.00;99.90
12386;DHT22;6257;57.634;18.310;2023-07-29T11:42:27;20.90;99.90
12386;DHT22;6257;57.634;18.310;2023-07-29T11:44:56;21.00;99.90
12386;DHT22;6257;57.634;18.310;2023-07-29T11:47:24;21.00;99.90
12386;DHT22;6257;57.634;18.310;2023-07-29T11:49:52;21.10;99.90
12386;DHT22;6257;57.634;18.310;2023-07-29T11:52:19;20.90;99.90
12386;DHT22;6257;57.634;18.310;2023-07-29T11:54:49;21.00;99.90
12386;DHT22;6257;57.634;18.310;2023-07-29T11:57:16;21.00;99.90
12386;DHT22;6257;57.634;18.310;2023-07-29T11:59:45;20.90;99.90
12386;DHT22;6257;57.634;18.310;2023-07-29T12:02:15;20.90;99.90
12386;DHT22;6257;57.634;18.310;2023-07-29T12:04:44;20.80;99.90
12386;DHT22;6257;57.634;18.310;2023-07-29T12:07:13;20.50;99.90
12386;DHT22;6257;57.634;18.310;2023-07-29T12:09:42;20.50;99.90
12386;DHT22;6257;57.634;18.310;2023-07-29T12:12:11;20.60;99.90
12386;DHT22;6257;57.634;18.310;2023-07-29T12:14:38;20.70;99.90
12386;DHT22;6257;57.634;18.310;2023-07-29T12:17:06;20.80;99.90
12386;DHT22;6257;57.634;18.310;2023-07-29T12:19:34;20.70;99.90
12386;DHT22;6257;57.634;18.310;2023-07-29T12:22:01;20.70;99.90
12386;DHT22;6257;57.634;18.310;2023-07-29T12:24:30;20.90;99.90
12386;DHT22;6257;57.634;18.310;2023-07-29T12:26:57;21.10;99.90
12386;DHT22;6257;57.634;18.310;2023-07-29T12:29:26;21.10;99.90
12386;DHT22;6257;57.634;18.310;2023-07-29T12:31:57;21.10;99.90
12386;DHT22;6257;57.634;18.310;2023-07-29T12:34:25;21.20;99.90
12386;DHT22;6257;57.634;18.310;2023-07-29T12:36:53;21.30;99.90
12386;DHT22;6257;57.634;18.310;2023-07-29T12:39:22;21.40;99.90
12386;DHT22;6257;57.634;18.310;2023-07-29T12:41:51;21.50;99.90
12386;DHT22;6257;57.634;18.310;2023-07-29T12:44:18;21.60;99.90
12386;DHT22;6257;57.634;18.310;2023-07-29T12:46:48;21.70;99.90
12386;DHT22;6257;57.634;18.310;2023-07-29T12:49:15;21.80;99.90
12386;DHT22;6257;57.634;18.310;2023-07-29T12:51:42;21.70;99.90
12386;DHT22;6257;57.634;18.310;2023-07-29T12:54:09;21.60;99.90
12386;DHT22;6257;57.634;18.310;2023-07-29T12:56:36;21.70;99.90
12386;DHT22;6257;57.634;18.310;2023-07-29T12:59:05;21.80;99.90
12386;DHT22;6257;57.634;18.310;2023-07-29T13:01:32;21.90;99.90
12386;DHT22;6257;57.634;18.310;2023-07-29T13:04:00;21.70;99.90
12386;DHT22;6257;57.634;18.310;2023-07-29T13:06:27;21.60;99.90
12386;DHT22;6257;57.634;18.310;2023-07-29T13:08:54;21.60;99.90
12386;DHT22;6257;57.634;18.310;2023-07-29T13:11:21;21.70;99.90
12386;DHT22;6257;57.634;18.310;2023-07-29T13:13:49;21.80;99.90
12386;DHT22;6257;57.634;18.310;2023-07-29T13:16:16;22.00;99.90
12386;DHT22;6257;57.634;18.310;2023-07-29T13:18:43;22.10;99.90
12386;DHT22;6257;57.634;18.310;2023-07-29T13:23:39;22.20;99.90
12386;DHT22;6257;57.634;18.310;2023-07-29T13:26:06;22.20;99.90
12386;DHT22;6257;57.634;18.310;2023-07-29T13:28:33;22.30;99.90
12386;DHT22;6257;57.634;18.310;2023-07-29T13:31:00;22.30;99.90
12386;DHT22;6257;57.634;18.310;2023-07-29T13:33:28;22.30;99.90
12386;DHT22;6257;57.634;18.310;2023-07-29T13:35:59;22.30;99.90
12386;DHT22;6257;57.634;18.310;2023-07-29T13:38:29;22.30;99.90
12386;DHT22;6257;57.634;18.310;2023-07-29T13:40:56;22.30;99.90
12386;DHT22;6257;57.634;18.310;2023-07-29T13:43:23;22.20;99.90
12386;DHT22;6257;57.634;18.310;2023-07-29T13:45:50;22.20;99.90
12386;DHT22;6257;57.634;18.310;2023-07-29T13:48:17;22.20;99.90
12386;DHT22;6257;57.634;18.310;2023-07-29T13:50:45;22.20;99.90
12386;DHT22;6257;57.634;18.310;2023-07-29T13:53:12;22.30;99.90
12386;DHT22;6257;57.634;18.310;2023-07-29T13:55:40;22.30;99.90
12386;DHT22;6257;57.634;18.310;2023-07-29T13:58:07;22.40;99.90
12386;DHT22;6257;57.634;18.310;2023-07-29T14:00:34;22.40;99.90
12386;DHT22;6257;57.634;18.310;2023-07-29T14:03:01;22.40;99.90
12386;DHT22;6257;57.634;18.310;2023-07-29T14:05:28;22.30;99.90
12386;DHT22;6257;57.634;18.310;2023-07-29T14:07:55;22.10;99.90
12386;DHT22;6257;57.634;18.310;2023-07-29T14:10:22;22.10;99.90
12386;DHT22;6257;57.634;18.310;2023-07-29T14:12:51;22.20;99.90
12386;DHT22;6257;57.634;18.310;2023-07-29T14:15:18;22.30;99.90
12386;DHT22;6257;57.634;18.310;2023-07-29T14:17:45;22.30;99.90
12386;DHT22;6257;57.634;18.310;2023-07-29T14:20:13;22.40;99.90
12386;DHT22;6257;57.634;18.310;2023-07-29T14:22:40;22.30;99.90
12386;DHT22;6257;57.634;18.310;2023-07-29T14:25:08;22.40;99.90
12386;DHT22;6257;57.634;18.310;2023-07-29T14:27:35;22.30;99.90
12386;DHT22;6257;57.634;18.310;2023-07-29T14:32:31;22.30;99.90
12386;DHT22;6257;57.634;18.310;2023-07-29T14:34:58;22.30;99.90
12386;DHT22;6257;57.634;18.310;2023-07-29T14:37:26;22.40;99.90
12386;DHT22;6257;57.634;18.310;2023-07-29T14:39:53;22.50;99.90
12386;DHT22;6257;57.634;18.310;2023-07-29T14:42:20;22.40;99.90
12386;DHT22;6257;57.634;18.310;2023-07-29T14:44:48;22.40;99.90
12386;DHT22;6257;57.634;18.310;2023-07-29T14:47:16;22.30;99.90
12386;DHT22;6257;57.634;18.310;2023-07-29T14:49:43;22.40;99.90
12386;DHT22;6257;57.634;18.310;2023-07-29T14:52:11;22.30;99.90
12386;DHT22;6257;57.634;18.310;2023-07-29T14:54:38;22.30;99.90
12386;DHT22;6257;57.634;18.310;2023-07-29T14:57:06;22.30;99.90
12386;DHT22;6257;57.634;18.310;2023-07-29T14:59:34;22.20;99.90
12386;DHT22;6257;57.634;18.310;2023-07-29T15:02:01;22.20;99.90
12386;DHT22;6257;57.634;18.310;2023-07-29T15:04:29;22.20;99.90
12386;DHT22;6257;57.634;18.310;2023-07-29T15:06:56;22.10;99.90
12386;DHT22;6257;57.634;18.310;2023-07-29T15:09:24;22.10;99.90
12386;DHT22;6257;57.634;18.310;2023-07-29T15:14:19;22.20;99.90
12386;DHT22;6257;57.634;18.310;2023-07-29T15:16:46;22.30;99.90
12386;DHT22;6257;57.634;18.310;2023-07-29T15:19:13;22.30;99.90
12386;DHT22;6257;57.634;18.310;2023-07-29T15:21:42;22.30;99.90
12386;DHT22;6257;57.634;18.310;2023-07-29T15:24:09;22.10;99.90
12386;DHT22;6257;57.634;18.310;2023-07-29T15:26:36;22.00;99.90
12386;DHT22;6257;57.634;18.310;2023-07-29T15:29:03;21.80;99.90
12386;DHT22;6257;57.634;18.310;2023-07-29T15:31:31;21.60;99.90
12386;DHT22;6257;57.634;18.310;2023-07-29T15:33:59;21.60;99.90
12386;DHT22;6257;57.634;18.310;2023-07-29T15:36:26;21.40;99.90
12386;DHT22;6257;57.634;18.310;2023-07-29T15:38:54;21.40;99.90
12386;DHT22;6257;57.634;18.310;2023-07-29T15:41:21;21.30;99.90
12386;DHT22;6257;57.634;18.310;2023-07-29T15:43:48;21.20;99.90
12386;DHT22;6257;57.634;18.310;2023-07-29T15:46:15;21.20;99.90
12386;DHT22;6257;57.634;18.310;2023-07-29T15:48:42;21.10;99.90
12386;DHT22;6257;57.634;18.310;2023-07-29T15:51:09;21.10;99.90
12386;DHT22;6257;57.634;18.310;2023-07-29T15:53:36;21.20;99.90
12386;DHT22;6257;57.634;18.310;2023-07-29T15:56:05;21.40;99.90
12386;DHT22;6257;57.634;18.310;2023-07-29T15:58:31;21.50;99.90
12386;DHT22;6257;57.634;18.310;2023-07-29T16:00:59;21.60;99.90
12386;DHT22;6257;57.634;18.310;2023-07-29T16:03:26;21.60;99.90
12386;DHT22;6257;57.634;18.310;2023-07-29T16:05:54;21.70;99.90
12386;DHT22;6257;57.634;18.310;2023-07-29T16:08:21;21.70;99.90
12386;DHT22;6257;57.634;18.310;2023-07-29T16:10:48;21.70;99.90
12386;DHT22;6257;57.634;18.310;2023-07-29T16:13:16;21.60;99.90
12386;DHT22;6257;57.634;18.310;2023-07-29T16:15:45;21.50;99.90
12386;DHT22;6257;57.634;18.310;2023-07-29T16:18:12;21.40;99.90
12386;DHT22;6257;57.634;18.310;2023-07-29T16:20:39;21.40;99.90
12386;DHT22;6257;57.634;18.310;2023-07-29T16:23:06;21.30;99.90
12386;DHT22;6257;57.634;18.310;2023-07-29T16:25:33;21.10;99.90
12386;DHT22;6257;57.634;18.310;2023-07-29T16:28:00;21.00;99.90
12386;DHT22;6257;57.634;18.310;2023-07-29T16:32:56;20.90;99.90
12386;DHT22;6257;57.634;18.310;2023-07-29T16:35:23;21.00;99.90
12386;DHT22;6257;57.634;18.310;2023-07-29T16:37:49;20.90;99.60